Time;durP1;ratioP1;P1;durP2;ratioP2;P2;SDS_P1;SDS_P2;PMS_P1;PMS_P2;Temp;Humidity;BMP_temperature;BMP_pressure;BME280_temperature;BME280_humidity;BME280_pressure;Samples;Min_cycle;Max_cycle;Signal;HPM_P1;HPM_P2
2023/09/28 00:02:22;;;;;;;7.35;3.80;;;;;;;19.95;74.07;101215.19;5113010;28;20028;-62
2023/09/28 00:04:48;;;;;;;10.88;4.20;;;;;;;19.92;74.12;101221.50;5112962;28;20028;-62
2023/09/28 00:07:14;;;;;;;6.05;3.85;;;;;;;19.89;74.06;101224.25;5113057;28;20141;-61
2023/09/28 00:09:39;;;;;;;8.15;3.88;;;;;;;19.94;74.14;101230.41;5115000;28;20040;-62
2023/09/28 00:12:05;;;;;;;7.05;3.78;;;;;;;19.92;74.13;101216.16;5116689;28;20505;-61
2023/09/28 00:14:30;;;;;;;8.25;4.03;;;;;;;19.89;74.38;101216.19;5116747;28;20030;-61
2023/09/28 00:16:57;;;;;;;8.25;3.80;;;;;;;19.86;74.40;101228.78;5116765;28;20031;-61
2023/09/28 00:19:23;;;;;;;7.30;4.18;;;;;;;19.83;74.62;101219.03;5116526;28;20388;-62
2023/09/28 00:21:49;;;;;;;10.00;3.65;;;;;;;19.80;74.94;101220.91;5116538;28;20073;-61
2023/09/28 00:24:14;;;;;;;5.85;3.75;;;;;;;19.81;74.82;101225.34;5116544;28;20031;-61
2023/09/28 00:26:40;;;;;;;7.03;3.33;;;;;;;19.79;74.94;101225.38;5116390;28;20055;-62
2023/09/28 00:29:06;;;;;;;8.00;4.00;;;;;;;19.76;75.30;101229.00;5116687;28;20023;-61
2023/09/28 00:31:31;;;;;;;7.07;3.97;;;;;;;19.76;75.33;101236.16;5116656;28;20034;-61
2023/09/28 00:33:57;;;;;;;7.25;3.80;;;;;;;19.71;75.71;101240.75;5116055;28;20048;-61
2023/09/28 00:36:23;;;;;;;8.10;4.18;;;;;;;19.66;75.98;101235.47;5116108;28;20072;-61
2023/09/28 00:38:48;;;;;;;6.70;4.25;;;;;;;19.64;76.14;101241.78;5116515;28;20031;-61
2023/09/28 00:41:14;;;;;;;5.72;3.78;;;;;;;19.60;76.11;101248.06;5115954;28;20077;-61
2023/09/28 00:43:40;;;;;;;6.60;4.25;;;;;;;19.58;76.67;101239.19;5098105;28;20035;-61
2023/09/28 00:46:05;;;;;;;7.78;4.20;;;;;;;19.58;76.69;101247.25;5116102;28;20147;-61
2023/09/28 00:48:40;;;;;;;6.65;4.10;;;;;;;19.55;76.69;101261.56;5116285;28;20028;-62
2023/09/28 00:51:06;;;;;;;8.20;4.10;;;;;;;19.51;77.06;101260.75;5116034;28;20077;-61
2023/09/28 00:53:32;;;;;;;8.43;4.38;;;;;;;19.50;77.03;101271.50;5116101;28;20031;-61
2023/09/28 00:55:58;;;;;;;9.82;4.20;;;;;;;19.48;77.14;101262.59;5115764;28;20373;-61
2023/09/28 00:58:24;;;;;;;6.60;3.80;;;;;;;19.49;77.02;101262.59;5115961;28;20031;-61
2023/09/28 01:00:50;;;;;;;8.25;4.40;;;;;;;19.44;77.51;101252.84;5115983;28;20020;-61
2023/09/28 01:03:16;;;;;;;7.55;4.43;;;;;;;19.37;78.01;101253.91;5115570;28;20024;-61
2023/09/28 01:05:42;;;;;;;9.05;4.45;;;;;;;19.32;78.59;101248.63;5114403;28;20038;-61
2023/09/28 01:08:14;;;;;;;8.15;4.20;;;;;;;19.27;78.73;101248.72;5115945;28;20378;-61
2023/09/28 01:10:42;;;;;;;;;;;;;;;19.31;77.69;101244.16;5116385;28;20038;-62
2023/09/28 01:13:12;;;;;;;6.97;3.80;;;;;;;19.27;78.15;101251.41;5115523;28;19908;-61
2023/09/28 01:15:37;;;;;;;6.90;3.92;;;;;;;19.24;78.30;101259.47;5115828;28;20042;-61
2023/09/28 01:18:03;;;;;;;9.75;4.00;;;;;;;19.24;78.54;101263.97;5115860;28;20027;-61
2023/09/28 01:20:35;;;;;;;9.80;4.20;;;;;;;19.20;79.16;101259.56;5114989;28;20477;-61
2023/09/28 01:23:05;;;;;;;6.10;3.65;;;;;;;19.14;79.19;101254.31;5115578;28;20043;-61
2023/09/28 01:25:31;;;;;;;5.65;3.95;;;;;;;19.12;79.61;101264.19;5115485;28;20467;-62
2023/09/28 01:27:57;;;;;;;7.43;3.97;;;;;;;19.08;80.07;101257.09;5115267;28;20156;-61
2023/09/28 01:30:23;;;;;;;5.97;3.95;;;;;;;19.00;80.17;101267.94;5115339;28;20027;-62
2023/09/28 01:32:49;;;;;;;7.05;3.88;;;;;;;18.97;80.32;101268.91;5115311;28;20032;-61
2023/09/28 01:35:14;;;;;;;6.43;3.70;;;;;;;18.96;80.36;101261.75;5114937;28;20048;-61
2023/09/28 01:37:55;;;;;;;7.28;3.90;;;;;;;18.96;80.44;101258.19;5115391;28;20027;-61
2023/09/28 01:40:20;;;;;;;8.88;3.97;;;;;;;18.93;80.85;101255.59;5115053;28;20023;-61
2023/09/28 01:42:46;;;;;;;7.93;4.00;;;;;;;18.91;81.50;101260.94;5114878;28;20061;-61
2023/09/28 01:45:12;;;;;;;9.45;4.20;;;;;;;18.89;81.49;101261.91;5115278;28;20031;-63
2023/09/28 01:47:38;;;;;;;7.40;3.90;;;;;;;18.84;81.93;101267.31;5114948;28;20024;-62
2023/09/28 01:50:03;;;;;;;8.80;3.95;;;;;;;18.84;81.66;101272.66;5115032;28;20118;-62
2023/09/28 01:52:29;;;;;;;6.40;3.90;;;;;;;18.85;81.76;101269.09;5115197;28;20107;-60
2023/09/28 01:54:55;;;;;;;7.97;3.85;;;;;;;18.81;82.40;101271.88;5113714;28;20448;-61
2023/09/28 01:57:20;;;;;;;8.27;4.20;;;;;;;18.74;82.83;101274.63;5114582;28;20055;-61
2023/09/28 01:59:46;;;;;;;8.30;4.40;;;;;;;18.72;82.92;101278.25;5114715;28;20373;-62
2023/09/28 02:02:11;;;;;;;9.52;4.28;;;;;;;18.70;83.12;101282.72;5114605;28;20429;-61
2023/09/28 02:04:37;;;;;;;6.25;3.90;;;;;;;18.70;82.91;101280.94;5113045;28;20057;-61
2023/09/28 02:07:04;;;;;;;8.15;4.28;;;;;;;18.70;83.23;101285.41;5113280;28;20115;-62
2023/09/28 02:09:29;;;;;;;7.68;4.20;;;;;;;18.72;82.60;101287.16;5114820;28;20111;-61
2023/09/28 02:11:55;;;;;;;7.50;4.20;;;;;;;18.71;82.98;101297.88;5113161;28;20114;-61
2023/09/28 02:14:20;;;;;;;9.63;4.30;;;;;;;18.72;82.96;101294.31;5114375;28;20045;-62
2023/09/28 02:16:45;;;;;;;7.72;4.10;;;;;;;18.72;83.10;101297.88;5114405;28;20023;-61
2023/09/28 02:19:11;;;;;;;10.93;4.47;;;;;;;18.67;83.92;101297.03;5114528;28;20468;-62
2023/09/28 02:21:37;;;;;;;7.28;4.22;;;;;;;18.61;83.49;101299.78;5114148;28;20034;-61
2023/09/28 02:24:03;;;;;;;8.63;4.05;;;;;;;18.58;84.02;101291.78;5114325;28;20035;-63
2023/09/28 02:26:28;;;;;;;6.43;3.95;;;;;;;18.57;84.71;101291.81;5114418;28;20057;-62
2023/09/28 02:28:53;;;;;;;6.40;4.30;;;;;;;18.51;84.93;101287.47;5114120;28;20098;-61
2023/09/28 02:31:19;;;;;;;7.43;4.25;;;;;;;18.48;85.18;101300.88;5113636;28;20031;-60
2023/09/28 02:33:47;;;;;;;9.93;3.97;;;;;;;18.50;84.97;101301.75;5113315;28;20450;-62
2023/09/28 02:36:12;;;;;;;7.35;4.18;;;;;;;18.50;84.69;101297.28;5114333;28;20116;-62
2023/09/28 02:38:38;;;;;;;7.28;4.30;;;;;;;18.47;85.45;101301.78;5113991;28;20024;-61
2023/09/28 02:41:03;;;;;;;8.00;4.30;;;;;;;18.45;85.44;101299.13;5113934;28;20023;-60
2023/09/28 02:43:28;;;;;;;8.93;4.28;;;;;;;18.43;85.33;101302.75;5113845;28;20030;-61
2023/09/28 02:45:55;;;;;;;7.00;4.30;;;;;;;18.39;85.62;101311.72;5113802;28;20035;-62
2023/09/28 02:48:21;;;;;;;6.80;4.15;;;;;;;18.35;85.73;101302.84;5113726;28;20453;-61
2023/09/28 02:50:48;;;;;;;8.43;4.05;;;;;;;18.37;85.28;101305.47;5113744;28;20106;-60
2023/09/28 02:53:13;;;;;;;11.57;4.38;;;;;;;18.31;86.20;101310.94;5113872;28;20067;-62
2023/09/28 02:55:39;;;;;;;7.88;4.35;;;;;;;18.30;86.81;101307.38;5112750;28;20127;-62
2023/09/28 02:58:04;;;;;;;10.10;4.40;;;;;;;18.25;86.96;101306.56;5112441;28;20031;-62
2023/09/28 03:00:32;;;;;;;6.10;4.20;;;;;;;18.17;87.20;101295.97;5113856;28;20485;-61
2023/09/28 03:03:00;;;;;;;5.55;4.05;;;;;;;18.23;87.15;101311.03;5113524;28;20036;-61
2023/09/28 03:05:27;;;;;;;6.35;3.85;;;;;;;18.17;87.64;101311.13;5112094;28;20429;-62
2023/09/28 03:07:52;;;;;;;9.10;4.70;;;;;;;18.13;88.40;101312.94;5113822;28;20266;-61
2023/09/28 03:10:19;;;;;;;5.97;3.92;;;;;;;18.12;88.38;101312.97;5113524;28;20032;-61
2023/09/28 03:12:46;;;;;;;8.70;4.50;;;;;;;18.08;88.83;101320.16;5113377;28;20123;-61
2023/09/28 03:15:13;;;;;;;8.55;4.50;;;;;;;18.02;89.45;101321.09;5113714;28;20126;-61
2023/09/28 03:17:40;;;;;;;7.13;4.80;;;;;;;18.03;89.79;101322.00;5113717;28;20081;-61
2023/09/28 03:20:17;;;;;;;9.95;4.45;;;;;;;18.02;88.95;101323.75;5113509;27;20055;-61
2023/09/28 03:22:44;;;;;;;6.70;4.63;;;;;;;18.01;89.71;101331.81;5113654;28;20038;-62
2023/09/28 03:25:16;;;;;;;7.78;4.70;;;;;;;18.01;90.22;101331.81;5113351;28;20361;-62
2023/09/28 03:27:42;;;;;;;11.73;4.65;;;;;;;18.01;90.08;101335.38;5113320;28;20063;-61
2023/09/28 03:30:09;;;;;;;9.77;4.93;;;;;;;18.00;90.27;101338.09;5113277;28;20117;-61
2023/09/28 03:32:36;;;;;;;10.10;4.80;;;;;;;18.00;89.75;101335.41;5113361;28;20031;-60
2023/09/28 03:35:03;;;;;;;8.25;4.78;;;;;;;17.98;90.13;101339.88;5112881;28;20149;-60
2023/09/28 03:37:28;;;;;;;7.97;4.32;;;;;;;18.00;90.11;101349.66;5113425;28;20099;-61
2023/09/28 03:39:54;;;;;;;8.10;4.78;;;;;;;17.98;90.13;101356.78;5113134;28;20506;-61
2023/09/28 03:42:19;;;;;;;8.00;4.65;;;;;;;18.00;90.26;101355.00;5094823;28;20027;-61
2023/09/28 03:44:44;;;;;;;9.88;4.32;;;;;;;18.01;89.91;101354.09;5117005;28;20422;-61
2023/09/28 03:47:10;;;;;;;6.68;4.38;;;;;;;17.97;89.80;101356.81;5116042;28;20031;-61
2023/09/28 03:49:36;;;;;;;6.95;4.43;;;;;;;18.05;89.21;101372.78;5117236;28;20107;-62
2023/09/28 03:52:02;;;;;;;7.82;4.80;;;;;;;18.02;89.78;101377.25;5117482;28;20088;-62
2023/09/28 03:54:27;;;;;;;7.32;4.35;;;;;;;18.01;89.65;101374.59;5117154;28;20024;-61
2023/09/28 03:56:53;;;;;;;7.35;4.63;;;;;;;17.97;90.06;101373.75;5115741;28;20028;-61
2023/09/28 03:59:18;;;;;;;11.60;4.90;;;;;;;17.93;90.71;101371.13;5117002;28;20076;-60
2023/09/28 04:01:44;;;;;;;8.55;4.60;;;;;;;17.87;90.24;101372.09;5115654;28;20202;-62
2023/09/28 04:04:10;;;;;;;9.82;4.95;;;;;;;17.84;90.73;101366.78;5116695;28;20024;-61
2023/09/28 04:06:36;;;;;;;9.02;4.75;;;;;;;17.83;91.27;101370.34;5116795;28;20074;-61
2023/09/28 04:09:02;;;;;;;7.30;4.88;;;;;;;17.81;91.35;101389.97;5116861;28;20080;-61
2023/09/28 04:11:28;;;;;;;10.77;5.18;;;;;;;17.79;91.66;101376.63;5116718;28;20028;-61
2023/09/28 04:13:53;;;;;;;8.55;4.85;;;;;;;17.78;91.79;101380.22;5116809;28;20038;-61
2023/09/28 04:16:18;;;;;;;9.20;4.80;;;;;;;17.76;92.19;101377.53;5116765;28;20111;-61
2023/09/28 04:18:44;;;;;;;8.85;4.93;;;;;;;17.73;92.13;101377.56;5116782;27;20330;-61
2023/09/28 04:21:09;;;;;;;6.82;4.60;;;;;;;17.73;92.69;101379.34;5116738;28;20072;-62
2023/09/28 04:23:35;;;;;;;9.65;4.95;;;;;;;17.68;93.18;101379.38;5116755;28;20392;-62
2023/09/28 04:26:00;;;;;;;8.90;4.90;;;;;;;17.66;92.98;101372.28;5116510;28;20545;-62
2023/09/28 04:28:25;;;;;;;6.85;4.80;;;;;;;17.63;93.03;101377.66;5116456;28;20027;-61
2023/09/28 04:30:52;;;;;;;9.73;5.00;;;;;;;17.59;93.66;101381.25;5116448;28;20032;-61
2023/09/28 04:33:17;;;;;;;8.40;4.65;;;;;;;17.59;93.65;101375.91;5116254;27;20093;-62
2023/09/28 04:35:43;;;;;;;8.23;5.50;;;;;;;17.57;93.91;101381.28;5116176;28;20067;-62
2023/09/28 04:38:08;;;;;;;15.77;5.55;;;;;;;17.55;93.92;101382.19;5116649;28;20035;-61
2023/09/28 04:40:34;;;;;;;9.23;5.25;;;;;;;17.59;94.02;101384.81;5116423;28;20024;-61
2023/09/28 04:42:59;;;;;;;9.50;5.15;;;;;;;17.56;93.72;101386.63;5116149;28;20126;-61
2023/09/28 04:45:24;;;;;;;10.40;5.18;;;;;;;17.52;94.08;101388.47;5116320;28;20546;-61
2023/09/28 04:47:50;;;;;;;12.82;5.30;;;;;;;17.51;94.27;101387.56;5114840;28;20048;-61
2023/09/28 04:50:16;;;;;;;7.85;5.20;;;;;;;17.48;94.29;101392.06;5114842;28;20441;-61
2023/09/28 04:52:43;;;;;;;12.55;5.78;;;;;;;17.47;94.50;101404.53;5115969;28;20106;-61
2023/09/28 04:55:10;;;;;;;8.35;5.35;;;;;;;17.42;94.94;101397.44;5115561;28;20035;-61
2023/09/28 04:57:35;;;;;;;10.60;5.50;;;;;;;17.39;95.14;101406.38;5116099;28;20039;-61
2023/09/28 05:00:01;;;;;;;12.30;5.63;;;;;;;17.34;95.33;101397.50;5115727;28;20028;-61
2023/09/28 05:02:26;;;;;;;10.15;5.55;;;;;;;17.30;95.65;101406.47;5115779;28;20024;-61
2023/09/28 05:04:52;;;;;;;9.13;5.13;;;;;;;17.24;95.79;101427.84;5115849;28;20115;-61
2023/09/28 05:07:17;;;;;;;10.43;5.32;;;;;;;17.21;95.34;101426.09;5116039;28;20415;-61
2023/09/28 05:09:44;;;;;;;8.30;4.85;;;;;;;17.18;95.51;101428.81;5115714;28;20391;-62
2023/09/28 05:12:10;;;;;;;9.63;4.90;;;;;;;17.22;94.88;101435.91;5115613;28;20106;-60
2023/09/28 05:14:35;;;;;;;11.60;5.07;;;;;;;17.20;94.84;101440.34;5115841;28;20123;-61
2023/09/28 05:17:01;;;;;;;11.15;5.15;;;;;;;17.16;94.92;101446.59;5115927;28;20028;-61
2023/09/28 05:19:26;;;;;;;9.05;5.30;;;;;;;17.14;94.53;101445.75;5115784;28;20099;-61
2023/09/28 05:21:52;;;;;;;10.25;5.00;;;;;;;17.14;94.05;101450.19;5115432;28;20568;-61
2023/09/28 05:24:17;;;;;;;11.13;4.85;;;;;;;17.14;93.43;101458.22;5115507;28;20461;-61
2023/09/28 05:26:43;;;;;;;10.63;4.78;;;;;;;17.15;93.43;101452.84;5115567;28;20061;-61
2023/09/28 05:29:08;;;;;;;8.93;4.90;;;;;;;17.17;93.45;101461.75;5114373;28;20035;-62
2023/09/28 05:31:33;;;;;;;10.23;5.00;;;;;;;17.17;93.15;101471.53;5115266;28;20477;-61
2023/09/28 05:33:59;;;;;;;11.00;4.80;;;;;;;17.16;92.75;101470.63;5114978;28;20081;-61
2023/09/28 05:36:24;;;;;;;11.43;5.13;;;;;;;17.15;92.72;101473.31;5113553;28;20464;-61
2023/09/28 05:38:50;;;;;;;9.52;4.78;;;;;;;17.18;92.29;101473.31;5114720;28;20465;-62
2023/09/28 05:41:15;;;;;;;13.52;4.97;;;;;;;17.15;92.37;101468.00;5114649;28;20032;-61
2023/09/28 05:43:41;;;;;;;11.50;4.45;;;;;;;17.15;92.00;101471.53;5114566;28;20031;-61
2023/09/28 05:46:09;;;;;;;9.00;4.32;;;;;;;17.14;92.44;101482.25;5114808;28;20031;-61
2023/09/28 05:48:36;;;;;;;9.70;4.50;;;;;;;17.11;92.34;101482.25;5114764;28;20040;-61
2023/09/28 05:51:01;;;;;;;10.75;4.90;;;;;;;17.09;92.62;101494.75;5114576;28;20111;-62
2023/09/28 05:53:26;;;;;;;13.63;5.13;;;;;;;17.06;92.49;101495.63;5114553;28;20098;-61
2023/09/28 05:55:52;;;;;;;10.20;4.80;;;;;;;17.05;92.74;101493.88;5114258;28;20031;-61
2023/09/28 05:58:18;;;;;;;8.98;4.55;;;;;;;17.00;92.92;101490.31;5114710;28;20105;-61
2023/09/28 06:00:44;;;;;;;11.23;5.13;;;;;;;16.92;93.34;101497.50;5114178;28;20024;-61
2023/09/28 06:03:09;;;;;;;11.30;4.80;;;;;;;16.99;93.00;101518.78;5114532;28;20049;-61
2023/09/28 06:05:35;;;;;;;10.77;4.60;;;;;;;17.00;92.91;101509.91;5114027;28;20460;-60
2023/09/28 06:08:01;;;;;;;11.18;4.75;;;;;;;17.05;92.70;101517.91;5113236;28;20108;-61
2023/09/28 06:10:27;;;;;;;13.10;5.03;;;;;;;17.05;92.82;101530.38;5114097;28;20031;-62
2023/09/28 06:12:52;;;;;;;9.82;5.13;;;;;;;17.03;92.74;101512.53;5114041;28;20028;-61
2023/09/28 06:15:18;;;;;;;10.07;4.97;;;;;;;17.01;92.84;101508.13;5114262;28;20020;-62
2023/09/28 06:17:43;;;;;;;12.57;4.55;;;;;;;17.00;92.92;101503.66;5114105;28;20337;-61
2023/09/28 06:20:09;;;;;;;12.40;5.25;;;;;;;17.07;93.11;101510.75;5113972;28;20027;-61
2023/09/28 06:22:35;;;;;;;10.80;5.20;;;;;;;17.04;92.98;101518.78;5114033;28;20045;-61
2023/09/28 06:25:02;;;;;;;18.88;5.63;;;;;;;16.98;93.02;101508.13;5113927;28;20109;-62
2023/09/28 06:27:28;;;;;;;12.68;5.30;;;;;;;16.97;93.00;101519.72;5113968;28;20397;-61
2023/09/28 06:29:54;;;;;;;10.05;5.28;;;;;;;16.93;93.37;101529.53;5113842;28;20031;-61
2023/09/28 06:32:21;;;;;;;13.25;5.53;;;;;;;16.98;93.10;101532.16;5112288;28;20494;-61
2023/09/28 06:34:47;;;;;;;15.00;5.30;;;;;;;17.08;92.99;101528.53;5111999;28;20485;-61
2023/09/28 06:37:12;;;;;;;11.52;5.35;;;;;;;17.16;92.57;101536.53;5113553;28;20031;-61
2023/09/28 06:39:38;;;;;;;10.82;4.65;;;;;;;17.32;91.67;101546.22;5113865;28;20020;-61
2023/09/28 06:42:04;;;;;;;14.40;5.00;;;;;;;17.38;91.36;101542.63;5113326;28;20107;-61
2023/09/28 06:44:30;;;;;;;11.43;4.72;;;;;;;17.52;90.51;101544.31;5113444;28;20403;-61
2023/09/28 06:46:57;;;;;;;12.88;4.57;;;;;;;17.66;90.21;101529.97;5113547;28;20023;-60
2023/09/28 06:49:22;;;;;;;15.65;5.03;;;;;;;17.70;89.67;101537.97;5113803;28;20032;-61
2023/09/28 06:51:49;;;;;;;15.77;5.00;;;;;;;17.81;88.81;101540.56;5113367;28;20036;-61
2023/09/28 06:54:15;;;;;;;16.85;4.85;;;;;;;17.98;87.98;101546.66;5113357;28;20495;-61
2023/09/28 06:56:40;;;;;;;13.85;4.90;;;;;;;18.09;87.65;101551.94;5113252;28;20047;-62
2023/09/28 06:59:07;;;;;;;13.27;4.63;;;;;;;18.14;86.92;101560.78;5113219;28;20353;-61
2023/09/28 07:01:33;;;;;;;12.50;4.38;;;;;;;18.24;87.17;101558.91;5113371;28;20129;-62
2023/09/28 07:03:59;;;;;;;13.75;4.90;;;;;;;18.31;86.02;101567.78;5113446;28;20077;-62
2023/09/28 07:06:24;;;;;;;15.05;4.22;;;;;;;18.46;85.74;101570.31;5113081;28;20106;-62
2023/09/28 07:08:50;;;;;;;11.55;4.47;;;;;;;18.65;84.57;101582.59;5113213;28;20024;-61
2023/09/28 07:11:15;;;;;;;14.98;4.32;;;;;;;18.78;83.88;101578.03;5111980;28;20490;-62
2023/09/28 07:13:41;;;;;;;17.30;4.47;;;;;;;18.98;83.10;101583.16;5113258;28;20020;-62
2023/09/28 07:16:07;;;;;;;14.45;4.45;;;;;;;19.16;81.91;101582.03;5113271;28;20434;-62
2023/09/28 07:18:33;;;;;;;20.30;4.80;;;;;;;19.27;80.92;101574.72;5112793;28;20112;-60
2023/09/28 07:20:59;;;;;;;16.48;4.68;;;;;;;19.43;80.44;101573.59;5113116;28;20107;-61
2023/09/28 07:23:24;;;;;;;20.17;4.47;;;;;;;19.54;78.64;101576.13;5111710;28;20024;-61
2023/09/28 07:25:51;;;;;;;17.48;4.40;;;;;;;19.50;78.69;101577.09;5112982;28;20031;-61
2023/09/28 07:28:16;;;;;;;20.52;4.63;;;;;;;19.56;79.14;101560.91;5113134;28;20028;-61
2023/09/28 07:30:42;;;;;;;20.10;4.90;;;;;;;19.52;78.13;101557.38;5111665;28;20080;-61
2023/09/28 07:33:07;;;;;;;16.25;4.20;;;;;;;19.40;78.46;101559.34;5112914;28;20027;-62
2023/09/28 07:35:33;;;;;;;16.58;3.95;;;;;;;19.20;78.59;101573.03;5112459;28;20071;-61
2023/09/28 07:37:59;;;;;;;20.67;4.40;;;;;;;19.03;79.61;101586.66;5112801;28;20438;-61
2023/09/28 07:40:25;;;;;;;22.60;4.50;;;;;;;19.10;79.71;101599.09;5112675;28;20028;-61
2023/09/28 07:42:50;;;;;;;24.88;4.65;;;;;;;19.29;79.41;101602.41;5112669;28;20085;-61
2023/09/28 07:45:18;;;;;;;24.58;4.88;;;;;;;19.50;78.42;101593.19;5112775;28;20055;-61
2023/09/28 07:47:44;;;;;;;19.92;4.47;;;;;;;19.73;77.79;101600.91;5112769;28;20548;-62
2023/09/28 07:50:14;;;;;;;17.98;4.10;;;;;;;19.96;76.90;101608.63;5112571;28;20137;-61
2023/09/28 07:52:40;;;;;;;22.02;4.78;;;;;;;20.14;75.13;101596.69;5112983;28;20470;-61
2023/09/28 07:55:07;;;;;;;15.98;4.20;;;;;;;20.33;74.70;101602.63;5112804;28;20030;-62
2023/09/28 07:57:32;;;;;;;19.75;4.38;;;;;;;20.60;74.32;101612.91;5112523;28;20469;-61
2023/09/28 08:00:02;;;;;;;19.35;4.10;;;;;;;20.85;72.54;101610.63;5112886;28;20149;-62
2023/09/28 08:02:27;;;;;;;24.15;4.35;;;;;;;20.96;70.89;101619.38;5111302;28;20031;-62
2023/09/28 08:04:53;;;;;;;24.55;4.57;;;;;;;21.13;70.37;101619.03;5112647;28;20028;-62
2023/09/28 08:07:19;;;;;;;21.30;4.50;;;;;;;21.33;69.49;101625.84;5112520;28;20053;-62
2023/09/28 08:09:47;;;;;;;19.88;4.45;;;;;;;21.42;68.75;101622.94;5112557;28;20028;-62
2023/09/28 08:12:13;;;;;;;20.02;4.63;;;;;;;21.52;68.41;101615.56;5112433;28;20051;-60
2023/09/28 08:14:38;;;;;;;19.80;4.45;;;;;;;21.72;67.57;101629.44;5112832;28;20030;-62
2023/09/28 08:17:04;;;;;;;22.38;4.40;;;;;;;21.83;67.61;101632.75;5111146;28;20404;-61
2023/09/28 08:19:29;;;;;;;19.50;4.68;;;;;;;21.98;66.74;101629.69;5111105;28;20122;-62
2023/09/28 08:21:55;;;;;;;20.95;4.38;;;;;;;22.12;65.92;101628.47;5112404;28;20039;-61
2023/09/28 08:24:20;;;;;;;23.05;4.57;;;;;;;22.02;64.87;101627.81;5112672;28;20043;-62
2023/09/28 08:26:46;;;;;;;19.95;4.50;;;;;;;22.15;65.69;101626.63;5112623;28;20534;-62
2023/09/28 08:29:12;;;;;;;20.70;4.40;;;;;;;22.32;65.27;101622.63;5111029;28;20468;-61
2023/09/28 08:31:37;;;;;;;24.00;4.43;;;;;;;22.44;64.57;101635.75;5115888;28;20120;-61
2023/09/28 08:34:03;;;;;;;17.58;4.22;;;;;;;22.48;63.86;101642.84;5115608;28;20134;-61
2023/09/28 08:36:30;;;;;;;24.48;4.68;;;;;;;22.41;63.89;101635.88;5114746;28;20455;-61
2023/09/28 08:38:56;;;;;;;24.80;4.90;;;;;;;22.36;63.14;101644.06;5115995;28;20038;-62
2023/09/28 08:41:31;;;;;;;21.65;4.35;;;;;;;22.23;63.02;101648.88;5116100;28;20035;-62
2023/09/28 08:44:04;;;;;;;16.67;4.32;;;;;;;22.25;64.13;101655.09;5115734;28;20414;-62
2023/09/28 08:46:33;;;;;;;23.23;4.57;;;;;;;22.01;63.26;101658.34;5116096;28;20377;-62
2023/09/28 08:49:02;;;;;;;18.50;4.47;;;;;;;21.92;64.07;101669.31;5116004;28;20024;-62
2023/09/28 08:51:29;;;;;;;21.73;4.75;;;;;;;21.74;63.54;101674.19;5115802;28;20028;-62
2023/09/28 08:53:56;;;;;;;18.00;4.45;;;;;;;21.74;64.55;101671.50;5115672;28;20030;-61
2023/09/28 08:56:22;;;;;;;24.33;4.70;;;;;;;21.64;64.21;101671.75;5115532;28;20063;-61
2023/09/28 08:58:48;;;;;;;21.58;4.22;;;;;;;21.85;63.97;101667.72;5115577;28;20110;-61
2023/09/28 09:01:15;;;;;;;22.23;4.70;;;;;;;22.02;63.43;101672.69;5115286;28;20023;-60
2023/09/28 09:03:40;;;;;;;27.02;4.75;;;;;;;21.99;62.84;101670.94;5115351;28;20046;-62
2023/09/28 09:06:09;;;;;;;22.10;4.68;;;;;;;21.89;63.27;101672.09;5115386;28;20377;-62
2023/09/28 09:08:35;;;;;;;17.52;4.60;;;;;;;21.79;62.93;101684.84;5115439;28;20548;-62
2023/09/28 09:11:01;;;;;;;21.30;4.93;;;;;;;21.85;64.72;101673.97;5115271;28;20495;-61
2023/09/28 09:13:28;;;;;;;25.25;4.88;;;;;;;22.27;63.66;101679.31;5115516;28;20019;-60
2023/09/28 09:15:54;;;;;;;20.35;4.90;;;;;;;22.47;61.73;101679.66;5113913;28;20049;-62
2023/09/28 09:18:20;;;;;;;23.50;5.38;;;;;;;22.45;61.14;101680.66;5115248;28;20019;-61
2023/09/28 09:20:49;;;;;;;16.90;4.50;;;;;;;22.56;61.18;101672.28;5115194;28;20031;-61
2023/09/28 09:23:17;;;;;;;23.73;4.72;;;;;;;22.58;60.35;101671.31;5115277;27;20107;-61
2023/09/28 09:25:44;;;;;;;21.67;4.97;;;;;;;22.64;60.04;101668.47;5115112;28;20031;-61
2023/09/28 09:28:12;;;;;;;22.02;5.00;;;;;;;22.75;59.36;101661.00;5114826;28;20024;-61
2023/09/28 09:30:37;;;;;;;18.45;4.40;;;;;;;22.48;59.69;101672.47;5115031;28;20050;-61
2023/09/28 09:33:06;;;;;;;21.77;4.97;;;;;;;22.40;59.99;101679.88;5114932;28;20110;-62
2023/09/28 09:35:33;;;;;;;23.58;5.28;;;;;;;22.33;60.02;101679.13;5114556;27;20172;-62
2023/09/28 09:37:59;;;;;;;22.67;5.00;;;;;;;22.25;60.57;101687.41;5115044;28;20032;-61
2023/09/28 09:40:25;;;;;;;17.88;4.50;;;;;;;22.30;60.48;101681.00;5114945;28;20031;-61
2023/09/28 09:42:51;;;;;;;23.67;4.43;;;;;;;22.16;60.52;101687.63;5114698;28;20032;-62
2023/09/28 09:45:19;;;;;;;20.10;4.82;;;;;;;22.12;59.83;101690.41;5115073;28;20464;-61
2023/09/28 09:47:47;;;;;;;20.17;4.57;;;;;;;22.31;60.45;101681.00;5114596;28;20024;-61
2023/09/28 09:50:17;;;;;;;22.42;4.57;;;;;;;22.55;58.87;101678.59;5114877;28;20039;-61
2023/09/28 09:52:44;;;;;;;23.65;5.13;;;;;;;22.63;58.55;101690.06;5114664;28;20015;-61
2023/09/28 09:55:09;;;;;;;18.08;4.20;;;;;;;22.93;57.24;101681.19;5114743;28;20104;-61
2023/09/28 09:57:40;;;;;;;20.92;4.65;;;;;;;23.07;58.10;101690.72;5114348;28;20114;-62
2023/09/28 10:00:08;;;;;;;23.48;4.53;;;;;;;23.19;56.90;101687.69;5114342;28;20035;-61
2023/09/28 10:02:39;;;;;;;17.42;4.43;;;;;;;23.36;56.84;101693.47;5114632;28;20183;-62
2023/09/28 10:05:08;;;;;;;16.63;4.10;;;;;;;23.55;56.61;101696.50;5114279;28;20035;-62
2023/09/28 10:07:37;;;;;;;16.60;3.95;;;;;;;23.81;54.86;101678.66;5114299;28;20392;-61
2023/09/28 10:10:03;;;;;;;18.77;4.50;;;;;;;24.08;54.81;101679.63;5112908;28;20031;-61
2023/09/28 10:12:30;;;;;;;18.50;4.05;;;;;;;24.11;54.69;101679.50;5114137;28;20050;-62
2023/09/28 10:14:58;;;;;;;20.27;4.65;;;;;;;24.06;53.29;101679.66;5113985;27;20027;-60
2023/09/28 10:17:28;;;;;;;17.83;4.53;;;;;;;24.27;53.52;101669.97;5114402;28;20095;-62
2023/09/28 10:19:57;;;;;;;20.08;4.10;;;;;;;24.59;53.93;101658.13;5114352;28;20032;-62
2023/09/28 10:22:22;;;;;;;18.08;4.57;;;;;;;24.77;52.18;101653.03;5114253;28;20028;-61
2023/09/28 10:24:48;;;;;;;18.60;4.50;;;;;;;24.80;52.33;101645.69;5113898;28;20026;-62
2023/09/28 10:27:14;;;;;;;21.52;4.38;;;;;;;24.82;53.14;101637.50;5113763;28;20488;-62
2023/09/28 10:29:40;;;;;;;15.93;4.18;;;;;;;24.63;51.36;101635.47;5114035;28;20062;-62
2023/09/28 10:32:29;;;;;;;17.15;4.50;;;;;;;24.52;52.35;101650.28;5114024;28;20083;-62
2023/09/28 10:35:19;;;;;;;18.55;4.05;;;;;;;24.32;52.63;101653.63;5113374;28;20052;-62
2023/09/28 10:38:17;;;;;;;14.45;4.03;;;;;;;24.08;52.83;101650.81;5113641;28;20055;-62
2023/09/28 10:40:47;;;;;;;17.13;4.00;;;;;;;23.91;52.89;101655.88;5112128;28;20028;-61
2023/09/28 10:43:27;;;;;;;18.50;4.18;;;;;;;24.27;53.44;101659.19;5113627;28;20023;-61
2023/09/28 10:45:52;;;;;;;18.83;4.25;;;;;;;24.57;51.69;101645.59;5113831;28;20035;-61
2023/09/28 10:48:18;;;;;;;14.32;3.85;;;;;;;24.20;52.27;101663.91;5113468;28;20361;-62
2023/09/28 10:50:46;;;;;;;14.32;3.97;;;;;;;24.16;52.61;101640.66;5113533;28;20059;-61
2023/09/28 10:53:11;;;;;;;17.00;3.83;;;;;;;24.45;53.14;101668.50;5112824;28;20024;-61
2023/09/28 10:55:40;;;;;;;21.40;4.80;;;;;;;24.62;52.68;101662.53;5113514;28;20031;-60
2023/09/28 10:58:05;;;;;;;17.15;3.92;;;;;;;24.26;52.10;101664.63;5113247;28;20118;-61
2023/09/28 11:00:32;;;;;;;18.20;4.18;;;;;;;23.92;52.49;101663.03;5113378;28;20115;-62
2023/09/28 11:02:58;;;;;;;15.38;4.30;;;;;;;23.83;53.08;101666.03;5113498;28;20023;-62
2023/09/28 11:05:24;;;;;;;16.45;4.00;;;;;;;23.87;53.11;101667.69;5113209;28;20023;-61
2023/09/28 11:07:49;;;;;;;18.27;4.05;;;;;;;24.01;53.12;101675.34;5113056;28;20032;-62
2023/09/28 11:10:14;;;;;;;19.35;4.15;;;;;;;23.82;54.09;101680.47;5113215;28;20062;-61
2023/09/28 11:12:41;;;;;;;18.17;3.88;;;;;;;23.44;54.24;101688.75;5113016;28;20076;-61
2023/09/28 11:15:09;;;;;;;19.52;4.50;;;;;;;23.38;54.15;101685.31;5113009;28;20023;-61
2023/09/28 11:17:35;;;;;;;16.50;3.88;;;;;;;23.27;54.14;101701.81;5112883;28;20119;-61
2023/09/28 11:20:01;;;;;;;19.92;4.18;;;;;;;23.13;54.81;101686.03;5111633;28;20035;-61